sensor_id;sensor_type;location;lat;lon;timestamp;P1;durP1;ratioP1;P2;durP2;ratioP2
38262;SDS011;24054;50.128;19.730;2023-02-28T16:23:39;6.82;;;4.63;;
38262;SDS011;24054;50.128;19.730;2023-02-28T16:28:35;5.95;;;4.15;;
38262;SDS011;24054;50.128;19.730;2023-02-28T16:31:04;6.03;;;3.97;;
38262;SDS011;24054;50.128;19.730;2023-02-28T16:33:34;6.32;;;3.75;;
38262;SDS011;24054;50.128;19.730;2023-02-28T16:36:01;6.00;;;3.65;;
38262;SDS011;24054;50.128;19.730;2023-02-28T16:38:30;4.90;;;3.78;;
38262;SDS011;24054;50.128;19.730;2023-02-28T16:41:00;5.95;;;3.85;;
38262;SDS011;24054;50.128;19.730;2023-02-28T16:43:27;6.25;;;3.88;;
38262;SDS011;24054;50.128;19.730;2023-02-28T16:45:55;5.93;;;3.85;;
38262;SDS011;24054;50.128;19.730;2023-02-28T16:48:23;7.28;;;4.32;;
38262;SDS011;24054;50.128;19.730;2023-02-28T16:50:51;7.43;;;4.30;;
38262;SDS011;24054;50.128;19.730;2023-02-28T16:53:18;7.38;;;4.80;;
38262;SDS011;24054;50.128;19.730;2023-02-28T16:55:46;7.20;;;4.50;;
38262;SDS011;24054;50.128;19.730;2023-02-28T16:58:17;7.40;;;4.80;;
38262;SDS011;24054;50.128;19.730;2023-02-28T17:00:46;6.97;;;4.20;;
38262;SDS011;24054;50.128;19.730;2023-02-28T17:03:18;6.30;;;4.85;;
38262;SDS011;24054;50.128;19.730;2023-02-28T17:05:49;5.25;;;4.38;;
38262;SDS011;24054;50.128;19.730;2023-02-28T17:08:17;5.88;;;4.20;;
38262;SDS011;24054;50.128;19.730;2023-02-28T17:10:44;6.50;;;4.63;;
38262;SDS011;24054;50.128;19.730;2023-02-28T17:13:12;5.80;;;4.30;;
38262;SDS011;24054;50.128;19.730;2023-02-28T17:15:41;5.10;;;4.03;;
38262;SDS011;24054;50.128;19.730;2023-02-28T17:18:13;7.15;;;4.32;;
38262;SDS011;24054;50.128;19.730;2023-02-28T17:20:43;6.97;;;4.38;;
38262;SDS011;24054;50.128;19.730;2023-02-28T17:23:14;6.78;;;4.05;;
38262;SDS011;24054;50.128;19.730;2023-02-28T17:25:42;4.95;;;4.40;;
38262;SDS011;24054;50.128;19.730;2023-02-28T17:28:18;6.72;;;4.47;;
38262;SDS011;24054;50.128;19.730;2023-02-28T17:30:47;7.20;;;4.43;;
38262;SDS011;24054;50.128;19.730;2023-02-28T17:33:15;5.20;;;3.97;;
38262;SDS011;24054;50.128;19.730;2023-02-28T17:35:42;5.75;;;4.38;;
38262;SDS011;24054;50.128;19.730;2023-02-28T17:38:13;5.93;;;4.32;;
38262;SDS011;24054;50.128;19.730;2023-02-28T17:40:43;7.57;;;4.85;;
38262;SDS011;24054;50.128;19.730;2023-02-28T17:43:13;6.15;;;4.75;;
38262;SDS011;24054;50.128;19.730;2023-02-28T17:45:40;6.57;;;4.70;;
38262;SDS011;24054;50.128;19.730;2023-02-28T17:48:10;6.25;;;4.57;;
38262;SDS011;24054;50.128;19.730;2023-02-28T17:50:38;8.55;;;5.50;;
38262;SDS011;24054;50.128;19.730;2023-02-28T17:53:05;7.28;;;5.13;;
38262;SDS011;24054;50.128;19.730;2023-02-28T17:55:32;5.90;;;4.93;;
38262;SDS011;24054;50.128;19.730;2023-02-28T17:58:00;7.35;;;5.45;;
38262;SDS011;24054;50.128;19.730;2023-02-28T18:00:28;8.48;;;5.53;;
38262;SDS011;24054;50.128;19.730;2023-02-28T18:02:55;9.13;;;5.00;;
38262;SDS011;24054;50.128;19.730;2023-02-28T18:05:24;11.02;;;5.55;;
38262;SDS011;24054;50.128;19.730;2023-02-28T18:07:51;7.32;;;5.75;;
38262;SDS011;24054;50.128;19.730;2023-02-28T18:10:19;9.48;;;5.75;;
38262;SDS011;24054;50.128;19.730;2023-02-28T18:12:47;8.05;;;5.05;;
38262;SDS011;24054;50.128;19.730;2023-02-28T18:15:15;7.40;;;6.07;;
38262;SDS011;24054;50.128;19.730;2023-02-28T18:17:45;7.85;;;5.93;;
38262;SDS011;24054;50.128;19.730;2023-02-28T18:20:12;7.70;;;6.03;;
38262;SDS011;24054;50.128;19.730;2023-02-28T18:22:41;8.32;;;6.10;;
38262;SDS011;24054;50.128;19.730;2023-02-28T18:25:09;7.65;;;5.97;;
38262;SDS011;24054;50.128;19.730;2023-02-28T18:27:40;8.95;;;6.40;;
38262;SDS011;24054;50.128;19.730;2023-02-28T18:30:18;7.53;;;6.10;;
38262;SDS011;24054;50.128;19.730;2023-02-28T18:32:46;9.25;;;6.60;;
38262;SDS011;24054;50.128;19.730;2023-02-28T18:35:13;6.90;;;5.55;;
38262;SDS011;24054;50.128;19.730;2023-02-28T18:37:42;8.10;;;5.93;;
38262;SDS011;24054;50.128;19.730;2023-02-28T18:40:10;8.00;;;6.25;;
38262;SDS011;24054;50.128;19.730;2023-02-28T18:42:40;8.10;;;6.50;;
38262;SDS011;24054;50.128;19.730;2023-02-28T18:45:07;8.55;;;6.03;;
38262;SDS011;24054;50.128;19.730;2023-02-28T18:47:36;8.95;;;5.75;;
38262;SDS011;24054;50.128;19.730;2023-02-28T18:50:05;8.40;;;6.10;;
38262;SDS011;24054;50.128;19.730;2023-02-28T18:52:33;6.90;;;5.72;;
38262;SDS011;24054;50.128;19.730;2023-02-28T18:55:02;8.43;;;6.13;;
38262;SDS011;24054;50.128;19.730;2023-02-28T18:57:29;8.43;;;6.72;;
38262;SDS011;24054;50.128;19.730;2023-02-28T18:59:57;8.18;;;6.30;;
38262;SDS011;24054;50.128;19.730;2023-02-28T19:02:24;9.15;;;6.40;;
38262;SDS011;24054;50.128;19.730;2023-02-28T19:04:51;8.95;;;6.68;;
38262;SDS011;24054;50.128;19.730;2023-02-28T19:07:18;9.40;;;6.38;;
38262;SDS011;24054;50.128;19.730;2023-02-28T19:09:45;9.73;;;7.15;;
38262;SDS011;24054;50.128;19.730;2023-02-28T19:12:14;10.98;;;7.70;;
38262;SDS011;24054;50.128;19.730;2023-02-28T19:14:44;11.77;;;7.57;;
38262;SDS011;24054;50.128;19.730;2023-02-28T19:17:12;10.95;;;7.07;;
38262;SDS011;24054;50.128;19.730;2023-02-28T19:19:40;9.77;;;7.60;;
38262;SDS011;24054;50.128;19.730;2023-02-28T19:22:07;11.90;;;8.45;;
38262;SDS011;24054;50.128;19.730;2023-02-28T19:24:35;10.20;;;7.35;;
38262;SDS011;24054;50.128;19.730;2023-02-28T19:27:04;10.05;;;7.72;;
38262;SDS011;24054;50.128;19.730;2023-02-28T19:29:32;11.40;;;8.27;;
38262;SDS011;24054;50.128;19.730;2023-02-28T19:31:59;10.25;;;7.57;;
38262;SDS011;24054;50.128;19.730;2023-02-28T19:34:28;11.15;;;8.00;;
38262;SDS011;24054;50.128;19.730;2023-02-28T19:36:55;11.07;;;7.85;;
38262;SDS011;24054;50.128;19.730;2023-02-28T19:39:22;12.27;;;8.75;;
38262;SDS011;24054;50.128;19.730;2023-02-28T19:41:51;11.88;;;8.63;;
38262;SDS011;24054;50.128;19.730;2023-02-28T19:44:19;11.27;;;8.32;;
38262;SDS011;24054;50.128;19.730;2023-02-28T19:46:47;12.07;;;8.52;;
38262;SDS011;24054;50.128;19.730;2023-02-28T19:49:14;14.50;;;10.18;;
38262;SDS011;24054;50.128;19.730;2023-02-28T19:51:42;12.90;;;10.07;;
38262;SDS011;24054;50.128;19.730;2023-02-28T19:54:09;14.77;;;9.75;;
38262;SDS011;24054;50.128;19.730;2023-02-28T19:56:36;17.25;;;11.27;;
38262;SDS011;24054;50.128;19.730;2023-02-28T19:59:03;20.35;;;13.85;;
38262;SDS011;24054;50.128;19.730;2023-02-28T20:01:30;24.70;;;14.23;;
38262;SDS011;24054;50.128;19.730;2023-02-28T20:03:59;20.90;;;13.52;;
38262;SDS011;24054;50.128;19.730;2023-02-28T20:06:29;36.35;;;14.65;;
38262;SDS011;24054;50.128;19.730;2023-02-28T20:11:24;23.13;;;14.85;;
38262;SDS011;24054;50.128;19.730;2023-02-28T20:13:51;30.40;;;16.83;;
38262;SDS011;24054;50.128;19.730;2023-02-28T20:16:19;25.77;;;16.20;;
38262;SDS011;24054;50.128;19.730;2023-02-28T20:18:48;28.40;;;17.15;;
38262;SDS011;24054;50.128;19.730;2023-02-28T20:21:17;26.55;;;15.80;;
38262;SDS011;24054;50.128;19.730;2023-02-28T20:26:13;24.25;;;15.07;;
38262;SDS011;24054;50.128;19.730;2023-02-28T20:28:43;25.67;;;16.95;;
38262;SDS011;24054;50.128;19.730;2023-02-28T20:33:40;26.83;;;15.98;;
38262;SDS011;24054;50.128;19.730;2023-02-28T20:36:07;24.63;;;15.65;;
38262;SDS011;24054;50.128;19.730;2023-02-28T20:38:37;22.80;;;15.73;;
38262;SDS011;24054;50.128;19.730;2023-02-28T20:41:05;32.33;;;17.13;;
38262;SDS011;24054;50.128;19.730;2023-02-28T20:43:33;28.20;;;17.33;;
38262;SDS011;24054;50.128;19.730;2023-02-28T20:46:00;28.52;;;19.30;;
38262;SDS011;24054;50.128;19.730;2023-02-28T20:48:27;30.38;;;19.08;;
38262;SDS011;24054;50.128;19.730;2023-02-28T20:50:56;31.58;;;19.45;;
38262;SDS011;24054;50.128;19.730;2023-02-28T20:53:26;43.90;;;27.30;;
38262;SDS011;24054;50.128;19.730;2023-02-28T20:55:55;48.05;;;32.30;;
38262;SDS011;24054;50.128;19.730;2023-02-28T20:58:24;40.45;;;26.15;;
38262;SDS011;24054;50.128;19.730;2023-02-28T21:00:58;39.30;;;25.25;;
38262;SDS011;24054;50.128;19.730;2023-02-28T21:03:25;37.17;;;24.42;;
38262;SDS011;24054;50.128;19.730;2023-02-28T21:05:55;37.08;;;25.15;;
38262;SDS011;24054;50.128;19.730;2023-02-28T21:08:27;40.80;;;26.63;;
38262;SDS011;24054;50.128;19.730;2023-02-28T21:10:55;40.60;;;25.25;;
38262;SDS011;24054;50.128;19.730;2023-02-28T21:13:23;38.78;;;25.02;;
38262;SDS011;24054;50.128;19.730;2023-02-28T21:15:50;38.17;;;25.50;;
38262;SDS011;24054;50.128;19.730;2023-02-28T21:18:18;37.97;;;25.00;;
38262;SDS011;24054;50.128;19.730;2023-02-28T21:20:45;36.50;;;24.10;;
38262;SDS011;24054;50.128;19.730;2023-02-28T21:23:12;33.00;;;23.33;;
38262;SDS011;24054;50.128;19.730;2023-02-28T21:25:39;35.17;;;22.85;;
38262;SDS011;24054;50.128;19.730;2023-02-28T21:28:08;30.83;;;22.02;;
38262;SDS011;24054;50.128;19.730;2023-02-28T21:30:36;35.40;;;23.38;;
38262;SDS011;24054;50.128;19.730;2023-02-28T21:33:03;36.40;;;23.42;;
38262;SDS011;24054;50.128;19.730;2023-02-28T21:35:33;36.88;;;21.80;;
38262;SDS011;24054;50.128;19.730;2023-02-28T21:38:00;32.95;;;22.50;;
38262;SDS011;24054;50.128;19.730;2023-02-28T21:40:27;33.28;;;23.10;;
38262;SDS011;24054;50.128;19.730;2023-02-28T21:42:54;33.78;;;23.13;;
38262;SDS011;24054;50.128;19.730;2023-02-28T21:45:22;32.17;;;22.38;;
38262;SDS011;24054;50.128;19.730;2023-02-28T21:47:49;32.70;;;22.05;;
38262;SDS011;24054;50.128;19.730;2023-02-28T21:50:16;34.90;;;23.15;;
38262;SDS011;24054;50.128;19.730;2023-02-28T21:52:46;43.47;;;23.95;;
38262;SDS011;24054;50.128;19.730;2023-02-28T21:55:13;31.67;;;21.33;;
38262;SDS011;24054;50.128;19.730;2023-02-28T21:57:40;32.20;;;21.30;;
38262;SDS011;24054;50.128;19.730;2023-02-28T22:00:08;29.15;;;21.05;;
38262;SDS011;24054;50.128;19.730;2023-02-28T22:05:05;32.53;;;22.55;;
38262;SDS011;24054;50.128;19.730;2023-02-28T22:07:32;35.40;;;22.65;;
38262;SDS011;24054;50.128;19.730;2023-02-28T22:09:59;36.90;;;23.02;;
38262;SDS011;24054;50.128;19.730;2023-02-28T22:12:28;33.47;;;21.90;;
38262;SDS011;24054;50.128;19.730;2023-02-28T22:14:55;29.98;;;20.70;;
38262;SDS011;24054;50.128;19.730;2023-02-28T22:17:22;27.15;;;20.38;;
38262;SDS011;24054;50.128;19.730;2023-02-28T22:19:53;30.70;;;20.85;;
38262;SDS011;24054;50.128;19.730;2023-02-28T22:22:20;32.72;;;21.00;;
38262;SDS011;24054;50.128;19.730;2023-02-28T22:24:47;30.80;;;21.83;;
38262;SDS011;24054;50.128;19.730;2023-02-28T22:27:14;35.55;;;20.98;;
38262;SDS011;24054;50.128;19.730;2023-02-28T22:29:41;29.88;;;21.98;;
38262;SDS011;24054;50.128;19.730;2023-02-28T22:32:08;32.25;;;21.83;;
38262;SDS011;24054;50.128;19.730;2023-02-28T22:34:36;34.53;;;23.95;;
38262;SDS011;24054;50.128;19.730;2023-02-28T22:37:04;34.30;;;23.05;;
38262;SDS011;24054;50.128;19.730;2023-02-28T22:39:33;36.17;;;24.00;;
38262;SDS011;24054;50.128;19.730;2023-02-28T22:42:00;37.60;;;23.55;;
38262;SDS011;24054;50.128;19.730;2023-02-28T22:44:27;36.67;;;24.83;;
38262;SDS011;24054;50.128;19.730;2023-02-28T22:46:54;36.63;;;24.98;;
38262;SDS011;24054;50.128;19.730;2023-02-28T22:49:22;37.17;;;24.63;;
38262;SDS011;24054;50.128;19.730;2023-02-28T22:51:49;37.53;;;24.63;;
38262;SDS011;24054;50.128;19.730;2023-02-28T22:54:17;38.30;;;23.55;;
38262;SDS011;24054;50.128;19.730;2023-02-28T22:56:44;35.63;;;24.65;;
38262;SDS011;24054;50.128;19.730;2023-02-28T22:59:12;39.50;;;26.95;;
38262;SDS011;24054;50.128;19.730;2023-02-28T23:01:40;36.47;;;25.17;;
38262;SDS011;24054;50.128;19.730;2023-02-28T23:04:09;35.00;;;24.92;;
38262;SDS011;24054;50.128;19.730;2023-02-28T23:06:37;40.15;;;25.45;;
38262;SDS011;24054;50.128;19.730;2023-02-28T23:09:07;38.05;;;26.30;;
38262;SDS011;24054;50.128;19.730;2023-02-28T23:11:40;38.60;;;26.63;;
38262;SDS011;24054;50.128;19.730;2023-02-28T23:14:11;40.50;;;25.83;;
38262;SDS011;24054;50.128;19.730;2023-02-28T23:16:39;39.60;;;26.27;;
38262;SDS011;24054;50.128;19.730;2023-02-28T23:19:09;39.28;;;27.40;;
38262;SDS011;24054;50.128;19.730;2023-02-28T23:21:37;40.67;;;27.45;;
38262;SDS011;24054;50.128;19.730;2023-02-28T23:24:05;38.78;;;26.83;;
38262;SDS011;24054;50.128;19.730;2023-02-28T23:26:34;43.90;;;28.73;;
38262;SDS011;24054;50.128;19.730;2023-02-28T23:29:04;39.92;;;27.67;;
38262;SDS011;24054;50.128;19.730;2023-02-28T23:31:32;40.75;;;27.02;;
38262;SDS011;24054;50.128;19.730;2023-02-28T23:33:59;42.75;;;28.80;;
38262;SDS011;24054;50.128;19.730;2023-02-28T23:36:26;44.47;;;28.88;;
38262;SDS011;24054;50.128;19.730;2023-02-28T23:38:54;41.83;;;29.33;;
38262;SDS011;24054;50.128;19.730;2023-02-28T23:41:21;41.47;;;28.48;;
38262;SDS011;24054;50.128;19.730;2023-02-28T23:43:50;41.13;;;28.87;;
38262;SDS011;24054;50.128;19.730;2023-02-28T23:46:20;45.58;;;28.98;;
38262;SDS011;24054;50.128;19.730;2023-02-28T23:48:47;44.58;;;29.98;;
38262;SDS011;24054;50.128;19.730;2023-02-28T23:51:15;43.35;;;30.30;;
38262;SDS011;24054;50.128;19.730;2023-02-28T23:53:47;44.08;;;30.85;;
38262;SDS011;24054;50.128;19.730;2023-02-28T23:56:16;49.13;;;31.73;;
38262;SDS011;24054;50.128;19.730;2023-02-28T23:58:45;47.50;;;31.08;;
